Time;durP1;ratioP1;P1;durP2;ratioP2;P2;SDS_P1;SDS_P2;PMS_P1;PMS_P2;Temp;Humidity;BMP_temperature;BMP_pressure;BME280_temperature;BME280_humidity;BME280_pressure;Samples;Min_cycle;Max_cycle;Signal;HPM_P1;HPM_P2
2022/05/24 00:00:14;;;;;;;2.50;2.20;;;;;;;;;;5008072;28;20095;-73
2022/05/24 00:02:40;;;;;;;2.50;2.30;;;;;;;;;;5009990;28;20380;-75
2022/05/24 00:05:06;;;;;;;4.07;2.22;;;;;;;;;;5008478;28;20117;-74
2022/05/24 00:07:32;;;;;;;2.72;2.03;;;;;;;;;;5006522;28;20061;-73
2022/05/24 00:10:00;;;;;;;3.55;1.70;;;;;;;;;;5008203;28;20034;-72
2022/05/24 00:12:26;;;;;;;2.90;1.60;;;;;;;;;;5007033;28;20034;-73
2022/05/24 00:17:38;;;;;;;3.03;2.13;;;;;;;;;;5010655;28;20040;-73
2022/05/24 00:20:04;;;;;;;3.58;1.83;;;;;;;;;;5009118;28;20029;-74
2022/05/24 00:22:30;;;;;;;2.13;1.77;;;;;;;;;;5006597;28;20184;-73
2022/05/24 00:25:01;;;;;;;2.90;1.60;;;;;;;;;;5007148;28;20030;-73
2022/05/24 00:27:27;;;;;;;2.95;1.73;;;;;;;;;;5009268;28;20029;-73
2022/05/24 00:29:53;;;;;;;1.80;1.70;;;;;;;;;;5009032;28;20029;-75
2022/05/24 00:32:19;;;;;;;2.58;1.70;;;;;;;;;;5017858;28;20030;-73
2022/05/24 00:34:46;;;;;;;2.75;1.80;;;;;;;;;;5005959;28;20030;-73
2022/05/24 00:37:12;;;;;;;2.35;1.80;;;;;;;;;;5010281;28;20061;-73
2022/05/24 00:39:38;;;;;;;2.17;1.83;;;;;;;;;;5005934;28;20030;-75
2022/05/24 00:42:08;;;;;;;3.28;1.83;;;;;;;;;;5008152;28;20026;-73
2022/05/24 00:44:36;;;;;;;3.03;2.20;;;;;;;;;;5020980;28;20049;-73
2022/05/24 00:47:21;;;;;;;2.97;1.88;;;;;;;;;;5008404;28;20448;-73
2022/05/24 00:49:49;;;;;;;2.20;1.58;;;;;;;;;;5007869;28;20030;-73
2022/05/24 00:52:15;;;;;;;2.90;2.00;;;;;;;;;;5004947;28;20140;-73
2022/05/24 00:54:42;;;;;;;1.90;1.70;;;;;;;;;;5009150;28;20084;-73
2022/05/24 00:57:14;;;;;;;2.25;2.03;;;;;;;;;;5015441;28;20088;-75
2022/05/24 00:59:43;;;;;;;3.67;2.00;;;;;;;;;;5003669;28;20116;-73
2022/05/24 01:02:13;;;;;;;2.30;2.10;;;;;;;;;;5003141;28;20026;-74
2022/05/24 01:04:40;;;;;;;2.95;2.00;;;;;;;;;;5004003;28;20022;-76
2022/05/24 01:07:07;;;;;;;5.57;2.10;;;;;;;;;;5006572;28;20434;-76
2022/05/24 01:09:40;;;;;;;2.17;1.98;;;;;;;;;;5020391;28;20021;-75
2022/05/24 01:12:15;;;;;;;2.58;2.03;;;;;;;;;;5009098;28;20076;-75
2022/05/24 01:14:42;;;;;;;2.60;1.92;;;;;;;;;;5006761;28;20391;-75
2022/05/24 01:17:09;;;;;;;2.10;1.90;;;;;;;;;;5008711;28;20068;-75
2022/05/24 01:19:48;;;;;;;3.50;2.38;;;;;;;;;;5004244;28;20092;-74
2022/05/24 01:22:33;;;;;;;2.35;2.10;;;;;;;;;;5008372;28;20034;-75
2022/05/24 01:25:03;;;;;;;2.30;1.77;;;;;;;;;;5008070;28;20599;-75
2022/05/24 01:27:29;;;;;;;3.88;1.85;;;;;;;;;;5008446;28;20034;-76
2022/05/24 01:29:55;;;;;;;2.25;1.95;;;;;;;;;;5006350;28;20404;-75
2022/05/24 01:37:52;;;;;;;;;;;;;;;;;;5007370;28;20058;-76
2022/05/24 01:40:19;;;;;;;2.58;1.90;;;;;;;;;;5010164;28;19924;-76
2022/05/24 01:42:45;;;;;;;3.22;2.22;;;;;;;;;;5006553;28;20026;-75
2022/05/24 01:45:15;;;;;;;3.97;2.17;;;;;;;;;;5017519;28;20500;-74
2022/05/24 01:47:42;;;;;;;2.33;2.03;;;;;;;;;;5007019;28;20443;-74
2022/05/24 01:50:11;;;;;;;2.25;1.85;;;;;;;;;;5009314;28;20030;-75
2022/05/24 01:52:39;;;;;;;3.67;2.15;;;;;;;;;;5008376;28;20034;-75
2022/05/24 01:55:10;;;;;;;4.55;2.15;;;;;;;;;;5009266;28;20020;-74
2022/05/24 01:57:43;;;;;;;2.28;1.90;;;;;;;;;;5007035;28;20033;-74
2022/05/24 02:00:12;;;;;;;3.10;2.00;;;;;;;;;;5005649;28;20203;-74
2022/05/24 02:02:38;;;;;;;2.95;2.00;;;;;;;;;;5004626;28;20391;-73
2022/05/24 02:05:04;;;;;;;3.83;2.20;;;;;;;;;;5007678;28;20095;-73
2022/05/24 02:07:32;;;;;;;5.40;2.30;;;;;;;;;;5005277;28;20029;-73
2022/05/24 02:09:58;;;;;;;4.63;2.25;;;;;;;;;;5009820;28;20018;-73
2022/05/24 02:12:27;;;;;;;2.50;2.00;;;;;;;;;;5001171;28;20048;-73
2022/05/24 02:15:05;;;;;;;2.40;2.20;;;;;;;;;;5010930;28;20029;-73
2022/05/24 02:17:39;;;;;;;3.25;1.95;;;;;;;;;;5010003;28;20034;-74
2022/05/24 02:20:05;;;;;;;3.45;3.13;;;;;;;;;;5001698;28;20030;-75
2022/05/24 02:22:32;;;;;;;2.97;1.98;;;;;;;;;;5003228;28;20084;-73
2022/05/24 02:24:59;;;;;;;2.65;2.00;;;;;;;;;;5010597;28;20108;-73
2022/05/24 02:27:27;;;;;;;3.83;1.85;;;;;;;;;;5006666;28;20025;-73
2022/05/24 02:29:53;;;;;;;1.90;1.73;;;;;;;;;;5012700;28;20105;-74
2022/05/24 02:32:19;;;;;;;2.38;1.88;;;;;;;;;;5005911;28;20032;-73
2022/05/24 02:34:45;;;;;;;3.97;2.08;;;;;;;;;;5008530;28;20022;-74
2022/05/24 02:37:11;;;;;;;2.90;1.90;;;;;;;;;;5008819;28;20065;-74
2022/05/24 02:42:24;;;;;;;1.95;1.75;;;;;;;;;;4991065;28;20042;-74
2022/05/24 02:44:50;;;;;;;3.47;1.92;;;;;;;;;;5006322;28;20046;-74
2022/05/24 02:47:16;;;;;;;2.63;1.80;;;;;;;;;;5014916;28;20514;-75
2022/05/24 02:49:42;;;;;;;2.42;2.08;;;;;;;;;;5009714;28;20065;-74
2022/05/24 02:52:08;;;;;;;4.22;1.83;;;;;;;;;;5009740;28;20030;-73
2022/05/24 02:54:34;;;;;;;3.83;2.85;;;;;;;;;;5006626;28;20025;-72
2022/05/24 02:57:01;;;;;;;2.47;1.80;;;;;;;;;;5005192;28;20029;-73
2022/05/24 02:59:27;;;;;;;3.40;2.08;;;;;;;;;;5012553;28;20034;-75
2022/05/24 03:01:53;;;;;;;3.10;1.98;;;;;;;;;;5009673;28;20083;-73
2022/05/24 03:04:20;;;;;;;3.90;1.85;;;;;;;;;;5006523;28;20160;-73
2022/05/24 03:09:36;;;;;;;2.72;1.90;;;;;;;;;;5010839;28;20080;-73
2022/05/24 03:14:52;;;;;;;2.72;2.20;;;;;;;;;;5006091;28;20049;-74
2022/05/24 03:17:19;;;;;;;5.97;2.30;;;;;;;;;;5007653;28;20034;-72
2022/05/24 03:19:46;;;;;;;3.75;2.45;;;;;;;;;;5011300;28;20112;-73
2022/05/24 03:22:13;;;;;;;2.75;2.00;;;;;;;;;;5010669;28;20065;-73
2022/05/24 03:24:39;;;;;;;2.28;2.08;;;;;;;;;;5011103;28;20021;-73
2022/05/24 03:27:11;;;;;;;2.50;2.10;;;;;;;;;;5006408;28;20038;-74
2022/05/24 03:29:37;;;;;;;3.45;2.38;;;;;;;;;;5010100;28;20029;-73
2022/05/24 03:32:03;;;;;;;1.75;1.65;;;;;;;;;;5009783;28;20062;-73
2022/05/24 03:34:29;;;;;;;3.63;2.58;;;;;;;;;;5005114;28;20054;-73
2022/05/24 03:36:55;;;;;;;2.83;1.95;;;;;;;;;;5012078;28;20034;-74
2022/05/24 03:39:21;;;;;;;3.50;1.75;;;;;;;;;;5003537;28;20396;-73
2022/05/24 03:41:48;;;;;;;2.92;1.95;;;;;;;;;;5015241;28;20079;-74
2022/05/24 03:44:14;;;;;;;2.60;1.90;;;;;;;;;;5006097;28;20051;-75
2022/05/24 03:46:40;;;;;;;5.70;2.00;;;;;;;;;;5015395;28;20026;-73
2022/05/24 03:49:06;;;;;;;2.20;1.75;;;;;;;;;;5012998;28;20021;-73
2022/05/24 03:51:32;;;;;;;5.22;2.20;;;;;;;;;;5013615;28;20038;-73
2022/05/24 03:53:58;;;;;;;3.03;2.20;;;;;;;;;;5007856;28;20088;-73
2022/05/24 03:56:25;;;;;;;2.45;2.03;;;;;;;;;;5007606;28;20034;-73
2022/05/24 03:58:51;;;;;;;4.03;2.35;;;;;;;;;;5009514;28;20375;-73
2022/05/24 04:01:17;;;;;;;5.03;2.10;;;;;;;;;;5009956;28;20036;-73
2022/05/24 04:03:43;;;;;;;4.15;2.10;;;;;;;;;;5010258;28;20026;-73
2022/05/24 04:06:09;;;;;;;3.53;2.03;;;;;;;;;;5009760;28;20508;-73
2022/05/24 04:08:35;;;;;;;3.50;2.05;;;;;;;;;;5013946;28;20057;-73
2022/05/24 04:11:07;;;;;;;4.78;2.53;;;;;;;;;;5003354;28;20033;-73
2022/05/24 04:13:34;;;;;;;2.40;2.20;;;;;;;;;;5010587;28;20026;-74
2022/05/24 04:16:00;;;;;;;5.93;2.00;;;;;;;;;;5007372;28;20036;-73
2022/05/24 04:18:26;;;;;;;2.80;2.25;;;;;;;;;;5005015;28;20029;-73
2022/05/24 04:20:52;;;;;;;2.65;2.15;;;;;;;;;;5007014;28;20026;-72
2022/05/24 04:23:19;;;;;;;5.53;2.10;;;;;;;;;;5016745;28;20025;-74
2022/05/24 04:25:46;;;;;;;3.78;2.67;;;;;;;;;;5002430;28;20027;-73
2022/05/24 04:28:12;;;;;;;3.13;2.22;;;;;;;;;;5009114;28;20547;-74
2022/05/24 04:30:39;;;;;;;3.58;2.10;;;;;;;;;;5005182;28;20105;-73
2022/05/24 04:33:05;;;;;;;2.28;2.00;;;;;;;;;;5007084;28;20787;-73
2022/05/24 04:35:31;;;;;;;7.68;2.45;;;;;;;;;;5007556;28;20034;-74
2022/05/24 04:37:57;;;;;;;5.28;2.40;;;;;;;;;;4999923;28;20110;-73
2022/05/24 04:42:18;;;;;;;2.63;2.15;;;;;;;;;;5007410;28;20053;-74
2022/05/24 04:43:09;;;;;;;4.85;2.25;;;;;;;;;;5006809;28;20434;-74
2022/05/24 04:45:35;;;;;;;2.13;1.90;;;;;;;;;;5010687;28;20124;-74
2022/05/24 04:48:01;;;;;;;3.67;2.08;;;;;;;;;;5002422;28;20025;-74
2022/05/24 04:50:27;;;;;;;3.58;2.20;;;;;;;;;;5008339;28;20030;-74
2022/05/24 04:52:53;;;;;;;2.03;1.83;;;;;;;;;;5007763;28;20026;-73
2022/05/24 04:55:19;;;;;;;3.75;2.60;;;;;;;;;;5002826;28;20105;-73
2022/05/24 04:57:45;;;;;;;5.10;2.25;;;;;;;;;;5014482;28;20037;-74
2022/05/24 05:00:14;;;;;;;2.88;2.30;;;;;;;;;;5007214;28;20039;-73
2022/05/24 05:02:40;;;;;;;2.80;2.40;;;;;;;;;;5004211;28;20514;-73
2022/05/24 05:05:06;;;;;;;3.67;2.33;;;;;;;;;;5007005;28;20025;-73
2022/05/24 05:07:33;;;;;;;2.40;1.90;;;;;;;;;;5011387;28;20061;-74
2022/05/24 05:10:01;;;;;;;2.40;2.13;;;;;;;;;;5008132;28;20388;-73
2022/05/24 05:12:27;;;;;;;3.67;2.13;;;;;;;;;;5009165;28;20451;-73
2022/05/24 05:14:53;;;;;;;2.50;2.00;;;;;;;;;;5005180;28;20104;-73
2022/05/24 05:17:20;;;;;;;2.90;2.03;;;;;;;;;;5007586;28;20029;-74
2022/05/24 05:19:47;;;;;;;2.40;2.15;;;;;;;;;;5008709;28;20034;-73
2022/05/24 05:22:14;;;;;;;3.83;2.30;;;;;;;;;;5005697;28;20044;-73
2022/05/24 05:24:40;;;;;;;3.58;2.30;;;;;;;;;;5009210;28;20044;-73
2022/05/24 05:27:06;;;;;;;2.50;2.00;;;;;;;;;;5014083;28;20096;-74
2022/05/24 05:32:21;;;;;;;4.28;2.40;;;;;;;;;;5002754;28;20131;-73
2022/05/24 05:34:48;;;;;;;3.08;2.00;;;;;;;;;;5006912;28;20124;-74
2022/05/24 05:37:14;;;;;;;4.13;2.10;;;;;;;;;;5007775;28;20022;-73
2022/05/24 05:39:40;;;;;;;5.38;2.30;;;;;;;;;;5007934;28;20041;-73
2022/05/24 05:42:06;;;;;;;3.00;2.20;;;;;;;;;;5007497;28;20041;-74
2022/05/24 05:44:33;;;;;;;3.90;2.22;;;;;;;;;;5004309;28;20038;-73
2022/05/24 05:46:59;;;;;;;2.85;2.35;;;;;;;;;;5007907;28;20156;-73
2022/05/24 05:49:25;;;;;;;3.28;2.15;;;;;;;;;;5006958;28;20080;-73
2022/05/24 05:51:51;;;;;;;3.63;2.10;;;;;;;;;;5006617;28;20029;-73
2022/05/24 05:54:17;;;;;;;4.75;2.45;;;;;;;;;;5008726;28;20699;-73
2022/05/24 05:56:43;;;;;;;3.13;2.40;;;;;;;;;;5009567;28;20038;-73
2022/05/24 05:59:09;;;;;;;2.15;1.95;;;;;;;;;;5006613;28;20480;-73
2022/05/24 06:01:35;;;;;;;3.70;2.40;;;;;;;;;;5017078;28;20125;-74
2022/05/24 06:04:01;;;;;;;3.47;2.00;;;;;;;;;;5005343;28;20026;-74
2022/05/24 06:06:29;;;;;;;2.88;2.20;;;;;;;;;;5004412;28;20053;-73
2022/05/24 06:08:56;;;;;;;5.30;2.13;;;;;;;;;;5004304;28;20057;-73
2022/05/24 06:11:23;;;;;;;3.47;2.05;;;;;;;;;;5008088;28;20415;-74
2022/05/24 06:13:49;;;;;;;2.20;2.00;;;;;;;;;;5011573;28;20022;-74
2022/05/24 06:16:16;;;;;;;3.10;1.98;;;;;;;;;;5004958;28;20042;-73
2022/05/24 06:18:42;;;;;;;2.42;1.75;;;;;;;;;;5009283;28;20026;-73
2022/05/24 06:21:08;;;;;;;2.92;1.90;;;;;;;;;;5010580;28;20029;-72
2022/05/24 06:23:34;;;;;;;2.70;1.90;;;;;;;;;;5015694;28;20026;-74
2022/05/24 06:26:00;;;;;;;2.58;2.10;;;;;;;;;;5011102;28;20120;-74
2022/05/24 06:28:26;;;;;;;2.92;2.22;;;;;;;;;;5011689;28;20034;-75
2022/05/24 06:30:53;;;;;;;3.33;1.92;;;;;;;;;;5008901;28;20064;-74
2022/05/24 06:33:19;;;;;;;2.78;1.80;;;;;;;;;;5010366;28;20388;-74
2022/05/24 06:35:45;;;;;;;4.47;2.47;;;;;;;;;;5007882;28;20022;-76
2022/05/24 06:38:11;;;;;;;2.28;1.60;;;;;;;;;;5012266;28;20041;-74
2022/05/24 06:40:37;;;;;;;2.28;1.77;;;;;;;;;;5008100;28;20167;-75
2022/05/24 06:43:04;;;;;;;2.15;1.77;;;;;;;;;;5000004;28;20053;-74
2022/05/24 06:45:30;;;;;;;6.18;2.35;;;;;;;;;;5006630;28;20127;-74
2022/05/24 06:47:57;;;;;;;3.75;1.90;;;;;;;;;;5008664;28;20497;-73
2022/05/24 06:50:23;;;;;;;2.30;1.80;;;;;;;;;;5004262;28;20392;-73
2022/05/24 06:52:53;;;;;;;4.28;1.85;;;;;;;;;;5010113;28;20038;-73
2022/05/24 06:55:20;;;;;;;3.90;1.88;;;;;;;;;;5007994;28;20072;-74
2022/05/24 06:57:47;;;;;;;4.15;1.75;;;;;;;;;;5005348;28;20053;-73
2022/05/24 07:03:02;;;;;;;3.67;1.80;;;;;;;;;;5009006;28;20076;-74
2022/05/24 07:05:29;;;;;;;3.22;1.70;;;;;;;;;;4997891;28;20030;-75
2022/05/24 07:07:56;;;;;;;2.38;1.75;;;;;;;;;;5000772;28;20037;-74
2022/05/24 07:10:23;;;;;;;2.42;1.50;;;;;;;;;;5003715;28;20049;-74
2022/05/24 07:12:58;;;;;;;2.85;1.83;;;;;;;;;;4996876;28;20588;-74
2022/05/24 07:15:24;;;;;;;1.73;1.50;;;;;;;;;;4998313;28;20042;-75
2022/05/24 07:17:50;;;;;;;2.28;1.67;;;;;;;;;;5000932;28;20481;-75
2022/05/24 07:20:16;;;;;;;3.80;1.92;;;;;;;;;;5004280;28;20036;-74
2022/05/24 07:22:42;;;;;;;1.70;1.60;;;;;;;;;;4999424;28;20022;-73
2022/05/24 07:25:08;;;;;;;3.33;1.60;;;;;;;;;;5000121;28;20504;-74
2022/05/24 07:27:35;;;;;;;2.17;1.80;;;;;;;;;;4999577;28;20044;-74
2022/05/24 07:30:01;;;;;;;1.85;1.73;;;;;;;;;;5007513;28;20101;-74
2022/05/24 07:32:27;;;;;;;3.00;1.70;;;;;;;;;;5010683;28;20029;-74
2022/05/24 07:34:53;;;;;;;1.60;1.50;;;;;;;;;;5009536;28;20034;-74
2022/05/24 07:37:21;;;;;;;1.50;1.40;;;;;;;;;;4999891;28;20026;-75
2022/05/24 07:39:47;;;;;;;1.33;1.23;;;;;;;;;;4995387;28;20021;-74
2022/05/24 07:47:43;;;;;;;1.30;1.20;;;;;;;;;;5001005;28;20499;-70
2022/05/24 07:50:09;;;;;;;1.88;1.40;;;;;;;;;;5000741;28;20026;-74
2022/05/24 07:52:35;;;;;;;1.50;1.35;;;;;;;;;;5003625;28;20037;-75
2022/05/24 07:55:01;;;;;;;2.13;1.45;;;;;;;;;;4999080;28;20026;-74
2022/05/24 07:57:27;;;;;;;2.10;1.40;;;;;;;;;;5001453;28;20716;-75
2022/05/24 07:59:54;;;;;;;1.23;1.23;;;;;;;;;;4994018;28;20105;-75
2022/05/24 08:02:20;;;;;;;3.03;1.75;;;;;;;;;;5012054;28;20031;-75
2022/05/24 08:04:46;;;;;;;1.85;1.75;;;;;;;;;;4997043;28;20054;-75
2022/05/24 08:07:12;;;;;;;1.40;1.30;;;;;;;;;;5006060;28;20038;-75
2022/05/24 08:09:39;;;;;;;3.58;1.50;;;;;;;;;;4994940;28;20025;-74
2022/05/24 08:12:06;;;;;;;2.08;1.40;;;;;;;;;;5004007;28;20030;-75
2022/05/24 08:14:32;;;;;;;1.85;1.40;;;;;;;;;;5003095;28;20034;-76
2022/05/24 08:16:58;;;;;;;2.17;1.63;;;;;;;;;;4998296;28;20030;-75
2022/05/24 08:19:24;;;;;;;2.88;1.50;;;;;;;;;;5004909;28;20041;-76
2022/05/24 08:21:50;;;;;;;2.63;1.38;;;;;;;;;;5004863;28;20471;-75
2022/05/24 08:24:16;;;;;;;1.40;1.30;;;;;;;;;;4999773;28;20035;-77
2022/05/24 08:26:42;;;;;;;1.80;1.58;;;;;;;;;;5007727;28;20021;-74
2022/05/24 08:29:08;;;;;;;3.75;1.98;;;;;;;;;;5006323;28;20076;-75
2022/05/24 08:31:34;;;;;;;3.00;1.50;;;;;;;;;;5005654;28;20042;-76
2022/05/24 08:34:01;;;;;;;1.88;1.67;;;;;;;;;;5002336;28;20032;-75
2022/05/24 08:36:27;;;;;;;1.67;1.33;;;;;;;;;;5000198;28;20022;-75
2022/05/24 08:38:53;;;;;;;1.83;1.27;;;;;;;;;;5005395;28;20164;-75
2022/05/24 08:41:34;;;;;;;2.00;1.63;;;;;;;;;;4998359;28;20408;-75
2022/05/24 08:48:22;;;;;;;2.47;1.60;;;;;;;;;;5011308;28;20129;-76
2022/05/24 08:49:38;;;;;;;5.00;1.52;;;;;;;;;;5001868;28;20045;-75
2022/05/24 08:52:06;;;;;;;1.73;1.40;;;;;;;;;;4998809;28;20033;-75
2022/05/24 08:54:40;;;;;;;3.60;1.40;;;;;;;;;;4998677;28;20036;-76
2022/05/24 08:57:11;;;;;;;1.50;1.40;;;;;;;;;;5010914;28;20032;-75
2022/05/24 08:59:38;;;;;;;1.73;1.50;;;;;;;;;;4999509;28;20281;-75
2022/05/24 09:02:08;;;;;;;1.63;1.48;;;;;;;;;;5017236;28;20991;-75
2022/05/24 09:04:34;;;;;;;1.55;1.30;;;;;;;;;;4999409;28;20042;-76
2022/05/24 09:07:00;;;;;;;1.60;1.50;;;;;;;;;;4997457;28;20026;-74
2022/05/24 09:09:32;;;;;;;2.15;1.50;;;;;;;;;;4999357;28;20041;-75
2022/05/24 09:12:00;;;;;;;1.80;1.40;;;;;;;;;;4995478;28;20064;-75
2022/05/24 09:14:49;;;;;;;1.70;1.38;;;;;;;;;;5014726;28;20026;-75
2022/05/24 09:17:25;;;;;;;2.88;2.03;;;;;;;;;;4996951;28;20050;-74
2022/05/24 09:19:51;;;;;;;;;;;;;;;;;;5003316;28;20026;-76
2022/05/24 09:22:21;;;;;;;3.95;2.38;;;;;;;;;;5001858;28;19909;-75
2022/05/24 09:24:51;;;;;;;1.85;1.45;;;;;;;;;;5006445;28;20019;-75
2022/05/24 09:27:20;;;;;;;1.52;1.40;;;;;;;;;;5001487;28;20109;-74
2022/05/24 09:30:06;;;;;;;1.25;1.15;;;;;;;;;;5007359;28;20030;-75
2022/05/24 09:32:35;;;;;;;1.20;1.17;;;;;;;;;;4996121;28;20105;-75
2022/05/24 09:35:03;;;;;;;1.20;1.20;;;;;;;;;;4998717;28;20033;-76
2022/05/24 09:37:29;;;;;;;2.92;1.55;;;;;;;;;;5003487;28;20030;-74
2022/05/24 09:40:07;;;;;;;1.77;1.30;;;;;;;;;;4996706;28;20026;-74
2022/05/24 09:42:36;;;;;;;1.15;1.10;;;;;;;;;;4997141;28;20041;-74
2022/05/24 09:45:08;;;;;;;1.80;1.35;;;;;;;;;;5001549;28;20041;-74
2022/05/24 09:47:38;;;;;;;1.55;1.38;;;;;;;;;;5004950;28;20020;-74
2022/05/24 09:50:23;;;;;;;1.45;1.35;;;;;;;;;;5003311;28;20018;-75
2022/05/24 09:53:04;;;;;;;1.45;1.20;;;;;;;;;;5001787;28;20491;-74
2022/05/24 09:55:38;;;;;;;3.88;1.30;;;;;;;;;;5009317;28;20032;-73
2022/05/24 09:58:28;;;;;;;3.38;1.80;;;;;;;;;;5005378;28;20030;-76
2022/05/24 10:00:56;;;;;;;1.98;1.40;;;;;;;;;;5019935;28;20097;-75
2022/05/24 10:03:27;;;;;;;3.35;1.52;;;;;;;;;;5009668;28;20023;-74
2022/05/24 10:06:13;;;;;;;2.70;1.60;;;;;;;;;;5019855;28;20380;-75
2022/05/24 10:08:47;;;;;;;2.13;1.40;;;;;;;;;;5005779;28;20097;-75
2022/05/24 10:11:42;;;;;;;1.75;1.20;;;;;;;;;;5027443;28;20099;-74
2022/05/24 10:14:08;;;;;;;1.83;1.38;;;;;;;;;;5010873;28;20022;-74
2022/05/24 10:16:37;;;;;;;1.35;1.25;;;;;;;;;;5011956;28;20503;-74
2022/05/24 10:19:12;;;;;;;4.13;1.50;;;;;;;;;;5009712;28;20525;-75
2022/05/24 10:21:44;;;;;;;1.67;1.48;;;;;;;;;;5013350;28;20049;-74
2022/05/24 10:24:29;;;;;;;1.50;1.40;;;;;;;;;;5010549;28;20022;-74
2022/05/24 10:26:56;;;;;;;3.13;1.70;;;;;;;;;;5007647;28;20033;-75
2022/05/24 10:29:41;;;;;;;1.80;1.50;;;;;;;;;;5005802;28;20033;-74
2022/05/24 10:38:17;;;;;;;5.23;1.60;;;;;;;;;;5005381;28;20097;-75
2022/05/24 10:40:45;;;;;;;2.85;1.30;;;;;;;;;;5017395;28;20056;-74
2022/05/24 10:43:30;;;;;;;1.70;1.30;;;;;;;;;;5004950;28;20026;-75
2022/05/24 10:46:02;;;;;;;2.17;1.23;;;;;;;;;;5012371;28;20042;-75
2022/05/24 10:48:31;;;;;;;;;;;;;;;;;;5007789;28;20491;-75
2022/05/24 10:51:02;;;;;;;1.42;1.33;;;;;;;;;;5005271;28;19919;-76
2022/05/24 10:53:47;;;;;;;3.72;1.40;;;;;;;;;;5018896;28;20097;-75
2022/05/24 10:56:32;;;;;;;1.80;1.60;;;;;;;;;;4997912;28;20042;-76
2022/05/24 10:59:14;;;;;;;2.63;1.63;;;;;;;;;;5010956;28;20480;-76
2022/05/24 11:01:44;;;;;;;1.50;1.40;;;;;;;;;;5012293;28;20038;-75
2022/05/24 11:04:17;;;;;;;1.58;1.48;;;;;;;;;;5009204;28;20032;-75
2022/05/24 11:06:48;;;;;;;1.65;1.45;;;;;;;;;;5004654;28;20025;-75
2022/05/24 11:09:18;;;;;;;1.83;1.38;;;;;;;;;;5007227;28;20109;-76
2022/05/24 11:11:48;;;;;;;2.17;1.45;;;;;;;;;;5005398;28;20030;-75
2022/05/24 11:14:19;;;;;;;2.08;1.33;;;;;;;;;;5024317;28;20037;-75
2022/05/24 11:16:47;;;;;;;3.05;1.52;;;;;;;;;;5008007;28;20149;-75
2022/05/24 11:19:24;;;;;;;2.47;1.50;;;;;;;;;;5014011;28;20056;-76
2022/05/24 11:21:59;;;;;;;1.15;1.15;;;;;;;;;;5005416;28;20048;-75
2022/05/24 11:24:41;;;;;;;1.50;1.40;;;;;;;;;;5013378;28;20018;-75
2022/05/24 11:27:08;;;;;;;2.63;1.38;;;;;;;;;;5008454;28;20021;-75
2022/05/24 11:29:43;;;;;;;1.58;1.48;;;;;;;;;;5002292;28;20813;-76
2022/05/24 11:32:09;;;;;;;;;;;;;;;;;;5007309;28;20045;-76
2022/05/24 11:34:36;;;;;;;1.80;1.40;;;;;;;;;;5002242;28;19955;-75
2022/05/24 11:37:14;;;;;;;2.60;2.40;;;;;;;;;;5005069;28;20029;-75
2022/05/24 11:39:41;;;;;;;1.73;1.60;;;;;;;;;;5010104;28;20030;-73
2022/05/24 11:42:28;;;;;;;3.90;1.70;;;;;;;;;;5002820;28;20025;-75
2022/05/24 11:44:57;;;;;;;1.92;1.73;;;;;;;;;;5003650;28;20612;-75
2022/05/24 11:47:39;;;;;;;1.85;1.70;;;;;;;;;;5009292;28;20038;-76
2022/05/24 11:50:05;;;;;;;1.70;1.60;;;;;;;;;;5015382;28;20022;-77
2022/05/24 11:52:43;;;;;;;2.78;1.80;;;;;;;;;;5011950;28;20041;-77
2022/05/24 11:55:09;;;;;;;1.90;1.75;;;;;;;;;;5010554;28;20034;-74
2022/05/24 11:57:42;;;;;;;1.63;1.30;;;;;;;;;;5004875;28;20483;-76
2022/05/24 12:00:10;;;;;;;1.30;1.20;;;;;;;;;;5000574;28;20068;-75
2022/05/24 12:07:54;;;;;;;1.00;1.00;;;;;;;;;;4998382;28;20041;-76
2022/05/24 12:08:32;;;;;;;1.67;1.40;;;;;;;;;;4988296;28;20042;-77
2022/05/24 12:11:15;;;;;;;1.13;1.13;;;;;;;;;;5006062;28;20061;-76
2022/05/24 12:13:48;;;;;;;3.97;1.30;;;;;;;;;;5010344;28;20062;-75
2022/05/24 12:16:46;;;;;;;1.45;1.38;;;;;;;;;;5010820;28;20400;-76
2022/05/24 12:19:31;;;;;;;1.70;1.48;;;;;;;;;;4995356;28;20093;-76
2022/05/24 12:21:57;;;;;;;2.50;1.45;;;;;;;;;;5011101;28;20068;-75
2022/05/24 12:24:24;;;;;;;1.58;1.48;;;;;;;;;;5005840;28;20096;-76
2022/05/24 12:27:26;;;;;;;1.40;1.30;;;;;;;;;;5011757;28;20584;-76
2022/05/24 12:29:54;;;;;;;1.73;1.60;;;;;;;;;;5011107;28;20056;-75
2022/05/24 12:32:21;;;;;;;3.00;1.70;;;;;;;;;;4996802;28;20037;-77
2022/05/24 12:34:47;;;;;;;1.75;1.50;;;;;;;;;;5012027;28;20053;-77
2022/05/24 12:37:16;;;;;;;1.70;1.60;;;;;;;;;;5004224;28;20034;-77
2022/05/24 12:39:42;;;;;;;1.33;1.23;;;;;;;;;;5006141;28;20026;-77
2022/05/24 12:42:13;;;;;;;1.50;1.40;;;;;;;;;;5008027;28;20022;-77
2022/05/24 12:44:48;;;;;;;2.50;1.30;;;;;;;;;;5009730;28;20044;-77
2022/05/24 12:47:14;;;;;;;2.08;1.50;;;;;;;;;;5008130;28;20061;-75
2022/05/24 12:49:49;;;;;;;1.70;1.60;;;;;;;;;;5006540;28;20078;-75
2022/05/24 12:52:24;;;;;;;1.50;1.33;;;;;;;;;;5011955;28;20263;-76
2022/05/24 12:54:55;;;;;;;1.60;1.42;;;;;;;;;;5019819;28;20022;-76
2022/05/24 12:57:27;;;;;;;1.63;1.50;;;;;;;;;;5012176;28;20511;-75
2022/05/24 12:59:57;;;;;;;1.55;1.45;;;;;;;;;;5009099;28;20030;-75
2022/05/24 13:02:35;;;;;;;2.70;1.98;;;;;;;;;;5005103;28;20455;-76
2022/05/24 13:05:07;;;;;;;2.65;1.70;;;;;;;;;;5013468;28;20124;-76
2022/05/24 13:07:37;;;;;;;1.92;1.50;;;;;;;;;;5013393;28;20022;-76
2022/05/24 13:10:14;;;;;;;4.22;2.90;;;;;;;;;;5005382;28;20019;-78
2022/05/24 13:12:41;;;;;;;4.60;3.22;;;;;;;;;;4991986;28;20113;-77
2022/05/24 13:15:10;;;;;;;2.75;2.53;;;;;;;;;;5002871;28;20387;-77
2022/05/24 13:17:43;;;;;;;1.83;1.60;;;;;;;;;;5005844;28;21498;-79
2022/05/24 13:20:11;;;;;;;1.70;1.50;;;;;;;;;;5011635;28;20037;-77
2022/05/24 13:22:43;;;;;;;1.55;1.42;;;;;;;;;;5000978;28;20034;-78
2022/05/24 13:25:17;;;;;;;1.83;1.20;;;;;;;;;;5006251;28;20037;-77
2022/05/24 13:27:59;;;;;;;1.35;1.25;;;;;;;;;;5008445;28;20022;-76
2022/05/24 13:33:35;;;;;;;2.58;1.35;;;;;;;;;;5010809;28;20041;-76
2022/05/24 13:36:15;;;;;;;1.40;1.30;;;;;;;;;;5007611;28;20749;-77
2022/05/24 13:38:42;;;;;;;2.17;1.42;;;;;;;;;;5001701;28;20527;-76
2022/05/24 13:41:09;;;;;;;3.72;1.58;;;;;;;;;;4999348;28;20177;-75
2022/05/24 13:43:37;;;;;;;2.83;1.70;;;;;;;;;;5002337;28;20101;-76
2022/05/24 13:46:21;;;;;;;2.45;1.38;;;;;;;;;;5007130;28;20048;-76
2022/05/24 13:48:58;;;;;;;3.40;1.38;;;;;;;;;;5001144;28;20057;-76
2022/05/24 13:51:32;;;;;;;1.42;1.33;;;;;;;;;;5003526;28;20084;-74
2022/05/24 13:53:59;;;;;;;2.00;1.80;;;;;;;;;;5001903;28;20022;-77
2022/05/24 13:56:27;;;;;;;2.17;1.33;;;;;;;;;;4997910;28;20097;-76
2022/05/24 13:59:05;;;;;;;3.10;1.60;;;;;;;;;;5003223;28;20519;-76
2022/05/24 14:01:39;;;;;;;2.50;1.52;;;;;;;;;;5006338;28;20765;-77
2022/05/24 14:04:10;;;;;;;3.10;1.88;;;;;;;;;;5022071;28;20693;-76
2022/05/24 14:06:38;;;;;;;2.13;1.88;;;;;;;;;;5009319;28;20025;-77
2022/05/24 14:09:04;;;;;;;1.63;1.48;;;;;;;;;;5011803;28;20025;-76
2022/05/24 14:11:33;;;;;;;2.38;1.27;;;;;;;;;;5005547;28;20029;-76
2022/05/24 14:13:59;;;;;;;1.48;1.38;;;;;;;;;;5001645;28;20018;-76
2022/05/24 14:16:29;;;;;;;1.38;1.30;;;;;;;;;;5009004;28;20022;-81
2022/05/24 14:18:56;;;;;;;1.60;1.50;;;;;;;;;;5003020;28;20054;-77
2022/05/24 14:21:25;;;;;;;1.67;1.58;;;;;;;;;;5007695;28;20026;-76
2022/05/24 14:23:51;;;;;;;2.10;1.30;;;;;;;;;;5002372;28;20018;-77
2022/05/24 14:26:17;;;;;;;1.25;1.10;;;;;;;;;;5005893;28;20030;-77
2022/05/24 14:28:43;;;;;;;4.15;1.30;;;;;;;;;;5007964;28;20075;-77
2022/05/24 14:31:12;;;;;;;1.30;1.20;;;;;;;;;;4998803;28;20022;-76
2022/05/24 14:33:38;;;;;;;2.60;1.48;;;;;;;;;;5019443;28;20030;-77
2022/05/24 14:36:06;;;;;;;2.83;1.58;;;;;;;;;;5005317;28;20038;-77
2022/05/24 14:38:32;;;;;;;1.20;1.20;;;;;;;;;;5006634;28;20022;-76
2022/05/24 14:41:16;;;;;;;1.25;1.15;;;;;;;;;;5003736;28;20072;-75
2022/05/24 14:43:44;;;;;;;1.75;0.95;;;;;;;;;;5005479;28;20030;-77
2022/05/24 14:46:10;;;;;;;3.00;1.65;;;;;;;;;;5002624;28;20066;-76
2022/05/24 14:48:37;;;;;;;1.58;1.20;;;;;;;;;;5009184;28;20058;-77
2022/05/24 14:51:04;;;;;;;1.20;1.10;;;;;;;;;;4999901;28;20022;-76
2022/05/24 14:53:32;;;;;;;1.15;1.05;;;;;;;;;;5007364;28;20479;-76
2022/05/24 14:55:58;;;;;;;0.95;0.93;;;;;;;;;;5010219;28;20427;-78
2022/05/24 14:58:25;;;;;;;1.50;1.40;;;;;;;;;;5006978;28;20045;-75
2022/05/24 15:00:51;;;;;;;3.03;1.50;;;;;;;;;;5007141;28;20375;-76
2022/05/24 15:03:17;;;;;;;1.30;1.20;;;;;;;;;;5008767;28;20026;-76
2022/05/24 15:05:43;;;;;;;1.30;1.10;;;;;;;;;;5002212;28;20046;-77
2022/05/24 15:16:24;;;;;;;1.58;1.45;;;;;;;;;;5001465;28;20057;-76
2022/05/24 15:18:50;;;;;;;4.82;2.35;;;;;;;;;;5003912;28;20034;-76
2022/05/24 15:21:18;;;;;;;2.88;1.45;;;;;;;;;;5010878;28;20026;-76
2022/05/24 15:23:46;;;;;;;1.23;1.13;;;;;;;;;;5014666;28;20030;-76
2022/05/24 15:26:13;;;;;;;1.10;1.10;;;;;;;;;;5009277;28;20141;-76
2022/05/24 15:28:40;;;;;;;1.05;1.05;;;;;;;;;;5002420;28;20681;-75
2022/05/24 15:31:07;;;;;;;1.33;1.00;;;;;;;;;;5013332;28;20045;-75
2022/05/24 15:33:36;;;;;;;2.67;1.67;;;;;;;;;;5019663;28;20537;-75
2022/05/24 15:36:03;;;;;;;0.98;0.98;;;;;;;;;;5012182;28;20029;-75
2022/05/24 15:38:30;;;;;;;1.42;1.33;;;;;;;;;;5007150;28;20105;-75
2022/05/24 15:40:57;;;;;;;1.23;1.13;;;;;;;;;;5004586;28;20037;-73
2022/05/24 15:43:24;;;;;;;1.50;1.40;;;;;;;;;;5006120;28;20554;-74
2022/05/24 15:45:52;;;;;;;1.70;1.33;;;;;;;;;;5014338;28;20132;-75